Time;durP1;ratioP1;P1;durP2;ratioP2;P2;SDS_P1;SDS_P2;PMS_P1;PMS_P2;Temp;Humidity;BMP_temperature;BMP_pressure;BME280_temperature;BME280_humidity;BME280_pressure;Samples;Min_cycle;Max_cycle;Signal;HPM_P1;HPM_P2
2023/07/28 00:00:58;;;;;;;6.93;3.53;;;15.50;42.50;;;;;;5063577;28;46517;-81
2023/07/28 00:03:24;;;;;;;7.90;3.33;;;15.50;42.80;;;;;;5060782;28;47791;-78
2023/07/28 00:05:50;;;;;;;4.60;3.00;;;15.40;43.10;;;;;;5041519;28;48364;-77
2023/07/28 00:08:15;;;;;;;4.77;3.20;;;15.40;43.40;;;;;;5059890;28;46467;-79
2023/07/28 00:10:42;;;;;;;11.87;3.20;;;15.30;43.30;;;;;;5059576;28;46515;-79
2023/07/28 00:13:08;;;;;;;4.90;2.70;;;15.20;43.20;;;;;;5041032;28;46687;-79
2023/07/28 00:15:33;;;;;;;7.97;3.10;;;15.10;43.10;;;;;;5061511;28;46924;-80
2023/07/28 00:17:59;;;;;;;5.90;2.97;;;15.00;44.00;;;;;;5062008;28;46523;-80
2023/07/28 00:20:26;;;;;;;12.50;3.30;;;15.00;44.30;;;;;;5061100;28;46392;-79
2023/07/28 00:22:52;;;;;;;6.47;3.10;;;14.90;44.40;;;;;;5047723;28;46789;-80
2023/07/28 00:25:17;;;;;;;11.20;3.60;;;14.90;44.80;;;;;;5040149;28;48258;-80
2023/07/28 00:27:43;;;;;;;6.43;3.70;;;14.80;43.80;;;;;;5037161;28;46425;-80
2023/07/28 00:30:10;;;;;;;10.20;4.00;;;15.00;45.20;;;;;;5057224;28;46595;-80
2023/07/28 00:32:36;;;;;;;10.07;3.33;;;14.80;45.20;;;;;;5040821;28;46461;-79
2023/07/28 00:35:02;;;;;;;7.53;3.90;;;14.70;45.50;;;;;;5059127;28;46627;-79
2023/07/28 00:37:27;;;;;;;6.30;3.30;;;14.70;45.70;;;;;;5059112;28;46462;-80
2023/07/28 00:39:53;;;;;;;8.10;2.90;;;14.70;45.70;;;;;;5058975;28;46452;-77
2023/07/28 00:42:18;;;;;;;9.33;3.50;;;14.60;46.00;;;;;;5058283;28;46401;-79
2023/07/28 00:44:44;;;;;;;5.53;3.43;;;14.60;46.10;;;;;;5057629;28;46653;-80
2023/07/28 00:47:09;;;;;;;5.23;3.10;;;14.50;46.20;;;;;;5056126;28;46814;-78
2023/07/28 00:49:35;;;;;;;6.17;3.20;;;14.40;46.50;;;;;;5058196;28;46164;-80
2023/07/28 00:52:01;;;;;;;8.10;3.70;;;14.40;46.70;;;;;;5057155;28;46498;-80
2023/07/28 00:54:26;;;;;;;12.10;3.70;;;14.40;46.80;;;;;;5058818;28;46546;-79
2023/07/28 00:56:52;;;;;;;5.93;3.37;;;14.30;46.90;;;;;;5056733;28;46645;-79
2023/07/28 00:59:18;;;;;;;7.70;3.57;;;14.30;47.00;;;;;;5057502;28;46387;-79
2023/07/28 01:01:44;;;;;;;5.60;3.43;;;14.20;46.90;;;;;;5063564;28;46794;-78
2023/07/28 01:04:09;;;;;;;5.40;3.03;;;14.20;47.00;;;;;;5063017;28;46482;-79
2023/07/28 01:07:00;;;;;;;10.23;4.10;;;14.20;48.30;;;;;;5064440;28;46324;-79
2023/07/28 01:09:39;;;;;;;7.60;4.10;;;14.20;47.20;;;;;;5061968;28;46530;-78
2023/07/28 01:12:09;;;;;;;7.27;4.10;;;14.20;47.20;;;;;;5048352;28;46687;-79
2023/07/28 01:14:34;;;;;;;9.23;4.10;;;14.10;47.00;;;;;;5062153;28;48127;-81
2023/07/28 01:17:00;;;;;;;7.27;3.20;;;14.20;47.10;;;;;;5061984;28;46522;-80
2023/07/28 01:19:26;;;;;;;6.57;3.70;;;14.20;46.90;;;;;;5062549;28;46690;-78
2023/07/28 01:22:27;;;;;;;5.60;3.50;;;14.20;46.70;;;;;;5039949;28;45961;-79
2023/07/28 01:25:03;;;;;;;7.10;3.90;;;14.30;46.90;;;;;;5037348;28;48438;-78
2023/07/28 01:27:29;;;;;;;5.80;3.70;;;14.40;46.60;;;;;;5046314;28;46690;-80
2023/07/28 01:29:54;;;;;;;7.47;4.10;;;14.40;46.60;;;;;;5063160;28;46456;-79
2023/07/28 01:32:20;;;;;;;6.43;3.53;;;14.40;47.70;;;;;;5043417;28;46708;-78
2023/07/28 01:34:45;;;;;;;8.43;3.20;;;14.40;46.50;;;;;;5062232;28;47257;-79
2023/07/28 01:37:11;;;;;;;7.73;3.57;;;14.40;46.50;;;;;;5062597;28;46555;-79
2023/07/28 01:39:37;;;;;;;7.70;3.43;;;14.40;46.40;;;;;;5063556;28;46467;-79
2023/07/28 01:42:02;;;;;;;5.80;3.50;;;14.40;46.40;;;;;;5062313;28;46407;-80
2023/07/28 01:44:28;;;;;;;5.83;3.27;;;14.40;46.50;;;;;;5063143;28;46396;-81
2023/07/28 01:46:54;;;;;;;8.10;3.90;;;14.40;46.60;;;;;;5063190;28;46231;-82
2023/07/28 01:49:19;;;;;;;7.70;3.83;;;14.50;46.60;;;;;;5056840;28;46337;-79
2023/07/28 01:51:45;;;;;;;9.27;3.57;;;14.50;46.50;;;;;;5061384;28;46515;-80
2023/07/28 01:54:11;;;;;;;6.40;3.27;;;14.40;46.50;;;;;;5062314;28;46568;-81
2023/07/28 01:56:36;;;;;;;9.77;3.80;;;14.50;46.70;;;;;;5064031;28;46805;-80
2023/07/28 01:59:02;;;;;;;6.10;3.40;;;14.40;47.20;;;;;;5062343;28;45800;-80
2023/07/28 02:01:27;;;;;;;7.67;3.40;;;14.40;46.80;;;;;;5061110;28;46727;-79
2023/07/28 02:03:53;;;;;;;7.03;3.50;;;14.40;47.00;;;;;;5063980;28;46680;-80
2023/07/28 02:06:18;;;;;;;6.10;3.43;;;14.40;47.00;;;;;;5063959;28;46526;-80
2023/07/28 02:08:44;;;;;;;5.90;3.57;;;14.40;47.00;;;;;;5069058;28;46386;-81
2023/07/28 02:11:10;;;;;;;7.20;3.53;;;14.30;47.00;;;;;;5064370;28;46370;-81
2023/07/28 02:13:35;;;;;;;7.23;3.73;;;14.40;47.40;;;;;;5062163;28;46494;-80
2023/07/28 02:16:01;;;;;;;5.30;3.40;;;14.30;47.10;;;;;;5062011;28;46279;-79
2023/07/28 02:18:26;;;;;;;6.90;3.80;;;14.40;47.10;;;;;;5046351;28;46377;-78
2023/07/28 02:20:52;;;;;;;7.37;3.50;;;14.40;47.10;;;;;;5063371;28;46423;-78
2023/07/28 02:23:17;;;;;;;7.30;3.50;;;14.40;47.00;;;;;;5062866;28;47184;-79
2023/07/28 02:25:43;;;;;;;8.23;3.83;;;14.40;46.20;;;;;;5060865;28;46387;-80
2023/07/28 02:28:10;;;;;;;6.63;3.50;;;14.40;47.10;;;;;;5064918;28;46770;-80
2023/07/28 02:30:35;;;;;;;6.50;3.60;;;14.40;47.20;;;;;;5059335;28;46613;-79
2023/07/28 02:33:01;;;;;;;8.50;3.70;;;14.40;47.30;;;;;;5065953;28;46024;-78
2023/07/28 02:35:26;;;;;;;6.10;3.43;;;14.40;46.50;;;;;;5058481;28;47396;-75
2023/07/28 02:37:52;;;;;;;5.60;3.63;;;14.30;47.40;;;;;;5063553;28;45915;-79
2023/07/28 02:40:18;;;;;;;7.30;4.27;;;14.40;47.50;;;;;;5059129;28;46489;-78
2023/07/28 02:42:43;;;;;;;8.43;3.47;;;14.40;47.70;;;;;;5064596;28;46522;-79
2023/07/28 02:45:09;;;;;;;6.20;4.00;;;14.60;47.70;;;;;;5061756;28;46533;-79
2023/07/28 02:47:35;;;;;;;7.30;3.57;;;14.50;46.50;;;;;;5061916;28;46073;-79
2023/07/28 02:50:01;;;;;;;6.80;3.10;;;14.50;47.30;;;;;;5062409;28;46432;-78
2023/07/28 02:52:27;;;;;;;7.00;3.93;;;14.60;47.20;;;;;;5062124;28;46541;-78
2023/07/28 02:54:52;;;;;;;6.43;3.57;;;14.60;47.00;;;;;;5063291;28;45819;-79
2023/07/28 02:57:18;;;;;;;7.17;3.53;;;14.50;46.10;;;;;;5061105;28;46556;-79
2023/07/28 02:59:44;;;;;;;7.70;3.47;;;14.50;47.20;;;;;;5063356;28;46526;-79
2023/07/28 03:02:09;;;;;;;6.23;3.80;;;14.50;47.50;;;;;;5063000;28;47519;-77
2023/07/28 03:04:35;;;;;;;6.60;4.00;;;14.60;47.70;;;;;;5060305;28;46643;-78
2023/07/28 03:07:00;;;;;;;7.10;4.07;;;14.40;47.70;;;;;;5063173;28;46434;-79
2023/07/28 03:09:26;;;;;;;5.87;3.30;;;14.40;47.80;;;;;;5043719;28;46803;-79
2023/07/28 03:11:51;;;;;;;6.97;3.50;;;14.40;47.80;;;;;;5061912;28;46401;-79
2023/07/28 03:14:17;;;;;;;6.80;3.07;;;14.40;47.90;;;;;;5061927;28;46359;-78
2023/07/28 03:16:42;;;;;;;5.47;3.37;;;14.50;48.30;;;;;;5060201;28;46360;-79
2023/07/28 03:19:08;;;;;;;5.10;3.30;;;14.50;48.40;;;;;;5061114;28;46440;-79
2023/07/28 03:21:34;;;;;;;11.70;3.77;;;14.50;48.50;;;;;;5059716;28;46525;-79
2023/07/28 03:23:59;;;;;;;7.70;3.40;;;14.50;48.70;;;;;;5064191;28;46708;-80
2023/07/28 03:26:25;;;;;;;6.23;3.53;;;14.50;49.00;;;;;;5060943;28;46360;-79
2023/07/28 03:28:50;;;;;;;7.20;4.13;;;14.60;49.10;;;;;;5060885;28;46363;-81
2023/07/28 03:31:16;;;;;;;5.40;3.27;;;14.60;49.10;;;;;;5064351;28;46457;-81
2023/07/28 03:33:41;;;;;;;9.70;3.50;;;14.60;49.00;;;;;;5066000;28;46483;-82
2023/07/28 03:36:08;;;;;;;6.23;3.43;;;14.70;49.00;;;;;;5066352;28;46428;-82
2023/07/28 03:38:33;;;;;;;6.17;3.40;;;14.70;48.90;;;;;;5063808;28;46606;-80
2023/07/28 03:40:59;;;;;;;6.17;3.37;;;14.80;48.80;;;;;;5062523;28;46479;-79
2023/07/28 03:43:25;;;;;;;6.80;3.60;;;14.80;48.90;;;;;;5061789;28;46512;-81
2023/07/28 03:45:50;;;;;;;5.30;3.30;;;14.70;48.80;;;;;;5044355;28;45887;-79
2023/07/28 03:48:16;;;;;;;10.03;3.87;;;14.70;49.10;;;;;;5064571;28;46483;-80
2023/07/28 03:50:41;;;;;;;6.30;4.10;;;14.60;49.30;;;;;;5061954;28;45884;-80
2023/07/28 03:53:07;;;;;;;8.33;3.77;;;14.50;49.50;;;;;;5063933;28;46402;-81
2023/07/28 03:55:32;;;;;;;11.07;4.30;;;14.60;48.60;;;;;;5061562;28;46469;-81
2023/07/28 03:57:58;;;;;;;6.33;3.20;;;14.60;49.70;;;;;;5061791;28;46383;-79
2023/07/28 04:00:23;;;;;;;5.57;3.47;;;14.70;49.40;;;;;;5061492;28;46654;-79
2023/07/28 04:02:49;;;;;;;7.73;3.60;;;14.80;49.30;;;;;;5061664;28;46722;-80
2023/07/28 04:05:15;;;;;;;7.13;3.80;;;15.00;48.80;;;;;;5062428;28;47184;-79
2023/07/28 04:07:40;;;;;;;5.30;3.67;;;15.10;48.10;;;;;;5061371;28;47720;-81
2023/07/28 04:10:06;;;;;;;7.77;3.60;;;15.30;47.90;;;;;;5061341;28;46612;-80
2023/07/28 04:12:32;;;;;;;5.43;3.30;;;15.40;47.60;;;;;;5062853;28;46426;-81
2023/07/28 04:14:57;;;;;;;7.33;3.80;;;15.40;47.70;;;;;;5064202;28;46730;-79
2023/07/28 04:17:23;;;;;;;9.87;3.67;;;15.50;47.70;;;;;;5059600;28;46435;-80
2023/07/28 04:19:48;;;;;;;6.30;3.67;;;15.60;47.60;;;;;;5063092;28;46572;-80
2023/07/28 04:22:18;;;;;;;6.77;3.23;;;15.70;47.40;;;;;;5063358;28;46508;-81
2023/07/28 04:24:43;;;;;;;8.57;3.10;;;15.90;47.00;;;;;;5062912;28;46378;-80
2023/07/28 04:27:09;;;;;;;5.93;3.30;;;16.10;46.60;;;;;;5062507;28;46344;-79
2023/07/28 04:29:35;;;;;;;7.43;3.67;;;16.30;46.40;;;;;;5060877;28;46429;-80
2023/07/28 04:32:00;;;;;;;12.70;4.30;;;16.40;46.30;;;;;;5063547;28;45817;-80
2023/07/28 04:34:26;;;;;;;6.50;4.07;;;16.60;46.10;;;;;;5053588;28;46610;-79
2023/07/28 04:36:51;;;;;;;8.33;4.00;;;16.80;45.60;;;;;;5066699;28;46464;-78
2023/07/28 04:39:17;;;;;;;11.90;3.83;;;16.90;45.30;;;;;;5065422;28;46498;-79
2023/07/28 04:41:42;;;;;;;7.47;4.17;;;17.00;45.50;;;;;;5066493;28;46559;-79
2023/07/28 04:44:08;;;;;;;9.53;4.00;;;17.00;45.60;;;;;;5065958;28;46515;-80
2023/07/28 04:46:33;;;;;;;7.20;3.83;;;17.20;46.00;;;;;;5066244;28;46478;-79
2023/07/28 04:48:59;;;;;;;10.40;4.80;;;17.10;46.10;;;;;;5070114;28;46566;-80
2023/07/28 04:51:24;;;;;;;6.23;3.93;;;17.10;46.40;;;;;;5064125;28;46529;-79
2023/07/28 04:53:50;;;;;;;7.70;4.27;;;17.10;46.70;;;;;;5067384;28;46619;-79
2023/07/28 04:56:15;;;;;;;7.90;3.97;;;17.10;46.90;;;;;;5074296;27;46592;-81
2023/07/28 04:58:41;;;;;;;8.77;4.17;;;17.10;47.20;;;;;;5046079;28;49368;-76
2023/07/28 05:01:09;;;;;;;7.30;3.63;;;17.20;46.80;;;;;;5046632;28;46442;-81
2023/07/28 05:03:34;;;;;;;7.77;3.30;;;17.40;46.20;;;;;;5063756;28;46388;-83
2023/07/28 05:06:00;;;;;;;14.33;3.77;;;17.60;45.50;;;;;;5067561;28;46728;-80
2023/07/28 05:08:25;;;;;;;6.63;3.63;;;17.70;45.50;;;;;;5065292;28;46940;-80
2023/07/28 05:10:51;;;;;;;6.83;3.90;;;17.90;45.20;;;;;;5064910;28;45811;-82
2023/07/28 05:13:16;;;;;;;18.07;8.97;;;18.00;44.80;;;;;;5065245;28;46728;-81
2023/07/28 05:15:42;;;;;;;8.60;5.27;;;18.20;43.00;;;;;;5065466;28;46482;-81
2023/07/28 05:18:08;;;;;;;7.40;4.37;;;18.20;44.00;;;;;;5064791;28;46408;-82
2023/07/28 05:20:33;;;;;;;8.40;3.40;;;18.40;43.80;;;;;;5046505;28;46877;-82
2023/07/28 05:22:59;;;;;;;6.37;3.63;;;18.50;43.40;;;;;;5064591;28;46437;-83
2023/07/28 05:25:25;;;;;;;5.40;3.10;;;18.60;43.30;;;;;;5068728;28;46805;-81
2023/07/28 05:27:50;;;;;;;5.87;3.27;;;18.70;42.80;;;;;;5048977;28;48227;-79
2023/07/28 05:30:16;;;;;;;6.70;3.43;;;18.80;42.60;;;;;;5064497;28;46524;-80
2023/07/28 05:32:41;;;;;;;5.37;3.13;;;18.80;41.40;;;;;;5065723;28;46334;-80
2023/07/28 05:35:07;;;;;;;5.87;3.20;;;18.80;42.50;;;;;;5049962;28;46416;-81
2023/07/28 05:37:33;;;;;;;5.53;2.87;;;19.00;42.30;;;;;;5062665;28;45999;-80
2023/07/28 05:39:58;;;;;;;5.13;2.83;;;19.50;40.20;;;;;;5062809;28;46610;-81
2023/07/28 05:42:25;;;;;;;7.97;3.40;;;19.50;41.10;;;;;;5042538;28;46478;-81
2023/07/28 05:44:52;;;;;;;6.17;3.40;;;20.00;40.20;;;;;;5061021;28;47049;-85
2023/07/28 05:47:18;;;;;;;7.13;2.80;;;21.90;35.80;;;;;;5062947;28;47068;-81
2023/07/28 05:49:43;;;;;;;4.20;2.67;;;22.00;34.50;;;;;;5064370;28;46594;-85
2023/07/28 05:52:09;;;;;;;15.50;7.27;;;23.10;31.80;;;;;;5062980;28;47133;-85
2023/07/28 05:54:34;;;;;;;4.57;2.80;;;23.30;30.10;;;;;;5066315;28;46464;-84
2023/07/28 05:57:00;;;;;;;5.53;3.30;;;22.90;31.00;;;;;;5063601;28;49031;-85
2023/07/28 05:59:26;;;;;;;4.60;2.73;;;23.20;30.00;;;;;;5057067;28;46569;-82
2023/07/28 06:01:51;;;;;;;6.73;2.90;;;23.80;28.60;;;;;;5070001;28;45921;-82
2023/07/28 06:04:17;;;;;;;6.33;3.50;;;23.50;28.30;;;;;;5067716;28;46391;-86
2023/07/28 06:06:42;;;;;;;4.87;2.50;;;23.20;27.90;;;;;;5062903;28;46583;-80
2023/07/28 06:09:08;;;;;;;6.10;3.00;;;23.70;27.40;;;;;;5062911;28;46607;-77
2023/07/28 06:11:33;;;;;;;4.90;2.60;;;24.30;25.50;;;;;;5061452;28;46727;-81
2023/07/28 06:13:59;;;;;;;6.87;2.63;;;24.00;25.30;;;;;;5061355;28;46277;-79
2023/07/28 06:16:24;;;;;;;5.00;3.17;;;23.50;25.90;;;;;;5048028;28;47083;-82
2023/07/28 06:18:50;;;;;;;5.30;2.80;;;23.10;26.30;;;;;;5058427;28;46674;-79
2023/07/28 06:21:16;;;;;;;5.63;3.03;;;22.70;26.80;;;;;;5042037;28;46501;-80
2023/07/28 06:23:41;;;;;;;6.90;2.63;;;22.50;27.10;;;;;;5061583;28;45967;-79
2023/07/28 06:26:07;;;;;;;6.00;2.33;;;22.30;26.80;;;;;;5063338;28;47300;-81
2023/07/28 06:28:32;;;;;;;7.43;2.67;;;22.20;26.80;;;;;;5064110;28;46251;-79
2023/07/28 06:30:58;;;;;;;4.93;2.67;;;22.10;26.80;;;;;;5065074;28;46556;-81
2023/07/28 06:33:25;;;;;;;5.33;2.63;;;22.10;26.90;;;;;;5044474;28;46513;-77
2023/07/28 06:35:52;;;;;;;8.20;2.53;;;22.20;27.10;;;;;;5059997;28;49155;-80
2023/07/28 06:38:18;;;;;;;8.73;2.60;;;22.60;26.10;;;;;;5075535;28;46252;-81
2023/07/28 06:40:44;;;;;;;5.00;3.00;;;22.90;25.50;;;;;;5076858;28;46575;-80
2023/07/28 06:43:10;;;;;;;9.43;3.03;;;23.00;25.10;;;;;;5078425;28;46919;-82
2023/07/28 06:45:36;;;;;;;6.20;3.60;;;23.10;23.80;;;;;;5070774;28;46662;-81
2023/07/28 06:48:03;;;;;;;10.70;3.40;;;23.00;24.60;;;;;;5058844;28;47209;-83
2023/07/28 06:50:29;;;;;;;6.73;2.40;;;23.10;24.60;;;;;;5074235;28;46636;-82
2023/07/28 06:52:55;;;;;;;3.90;2.50;;;23.10;24.60;;;;;;5072937;28;46745;-81
2023/07/28 06:55:21;;;;;;;10.60;3.07;;;23.30;24.80;;;;;;5076937;28;46140;-80
2023/07/28 06:57:47;;;;;;;6.30;2.60;;;23.50;24.80;;;;;;5075093;28;45815;-82
2023/07/28 07:00:14;;;;;;;5.43;2.43;;;23.40;23.90;;;;;;5057223;28;46257;-81
2023/07/28 07:02:40;;;;;;;4.77;2.60;;;23.40;23.90;;;;;;5072855;28;46034;-80
2023/07/28 07:05:06;;;;;;;13.73;7.33;;;23.50;23.50;;;;;;5048716;28;48985;-83
2023/07/28 07:07:32;;;;;;;7.00;3.00;;;23.50;23.10;;;;;;5060063;28;46697;-82
2023/07/28 07:09:59;;;;;;;5.83;3.50;;;23.60;22.70;;;;;;5061536;28;46550;-84
2023/07/28 07:12:24;;;;;;;6.43;2.80;;;23.80;22.30;;;;;;5063892;28;45905;-83
2023/07/28 07:14:50;;;;;;;5.13;3.23;;;23.90;22.00;;;;;;5062284;28;46407;-84
2023/07/28 07:17:15;;;;;;;5.67;2.37;;;24.40;22.30;;;;;;5046237;28;46713;-82
2023/07/28 07:19:41;;;;;;;5.10;2.50;;;24.00;21.60;;;;;;5040134;28;47647;-80
2023/07/28 07:22:07;;;;;;;9.33;2.63;;;23.80;20.80;;;;;;5058876;28;46489;-81
2023/07/28 07:24:32;;;;;;;7.70;3.50;;;23.80;21.50;;;;;;5059417;28;47179;-80
2023/07/28 07:26:58;;;;;;;5.80;2.20;;;23.70;21.40;;;;;;5061540;28;46413;-83
2023/07/28 07:29:24;;;;;;;5.97;2.60;;;23.70;21.40;;;;;;5062347;28;46428;-81
2023/07/28 07:31:54;;;;;;;4.40;2.30;;;23.80;21.30;;;;;;5061705;28;46430;-81
2023/07/28 07:34:20;;;;;;;4.93;2.70;;;23.70;21.20;;;;;;5060173;28;46638;-81
2023/07/28 07:36:46;;;;;;;4.83;2.43;;;23.70;21.40;;;;;;5059740;28;46414;-79
2023/07/28 07:39:11;;;;;;;5.87;2.90;;;23.50;21.30;;;;;;5041411;28;46361;-81
2023/07/28 07:41:37;;;;;;;5.50;2.77;;;23.70;21.50;;;;;;5056212;28;46660;-81
2023/07/28 07:44:02;;;;;;;3.83;2.40;;;24.00;21.30;;;;;;5059457;28;47312;-80
2023/07/28 07:46:28;;;;;;;5.93;2.60;;;24.40;20.60;;;;;;5039372;28;46525;-80
2023/07/28 07:48:54;;;;;;;9.03;2.47;;;24.90;19.90;;;;;;5058786;28;46388;-83
2023/07/28 07:51:19;;;;;;;3.97;2.17;;;24.90;19.50;;;;;;5059798;28;46826;-81
2023/07/28 07:53:45;;;;;;;6.07;2.40;;;25.00;19.40;;;;;;5057862;28;46728;-80
2023/07/28 07:56:10;;;;;;;4.23;2.60;;;25.00;19.70;;;;;;5059563;28;46144;-82
2023/07/28 07:58:36;;;;;;;4.97;2.27;;;25.20;19.40;;;;;;5057995;28;46420;-77
2023/07/28 08:01:02;;;;;;;4.93;2.73;;;25.40;19.00;;;;;;5057824;28;46816;-82
2023/07/28 08:03:28;;;;;;;5.13;2.30;;;25.50;19.20;;;;;;5059153;28;46396;-81
2023/07/28 08:05:54;;;;;;;3.67;2.00;;;25.50;18.50;;;;;;5055576;28;46586;-81
2023/07/28 08:08:19;;;;;;;5.30;2.10;;;25.70;18.30;;;;;;5058988;28;45861;-84
2023/07/28 08:10:47;;;;;;;5.20;2.20;;;25.80;18.30;;;;;;5060631;28;46860;-81
2023/07/28 08:13:12;;;;;;;4.47;2.30;;;25.70;18.10;;;;;;5058333;28;47278;-83
2023/07/28 08:15:38;;;;;;;6.33;2.33;;;26.10;16.30;;;;;;5058248;28;46537;-83
2023/07/28 08:18:04;;;;;;;5.23;2.10;;;26.30;17.20;;;;;;5060205;28;46423;-84
2023/07/28 08:20:29;;;;;;;10.20;2.60;;;26.70;15.80;;;;;;5058292;28;46494;-83
2023/07/28 08:22:55;;;;;;;3.90;2.33;;;27.20;15.10;;;;;;5058000;28;46409;-77
2023/07/28 08:25:22;;;;;;;5.07;2.53;;;27.30;14.30;;;;;;5042690;28;46455;-79
2023/07/28 08:27:48;;;;;;;3.83;2.03;;;27.40;13.90;;;;;;5062255;28;46483;-81
2023/07/28 08:30:15;;;;;;;3.87;2.23;;;27.30;13.90;;;;;;5063034;28;46492;-81
2023/07/28 08:32:41;;;;;;;5.10;2.40;;;27.20;13.80;;;;;;5064684;28;46666;-84
2023/07/28 08:35:08;;;;;;;6.60;2.13;;;27.20;13.80;;;;;;5042199;28;46689;-84
2023/07/28 08:37:33;;;;;;;5.53;2.80;;;27.10;14.00;;;;;;5043951;28;46423;-84
2023/07/28 08:39:59;;;;;;;4.10;2.20;;;26.90;14.00;;;;;;5060108;28;46386;-82
2023/07/28 08:42:25;;;;;;;5.83;2.50;;;26.70;14.20;;;;;;5061703;28;47086;-86
2023/07/28 08:44:52;;;;;;;7.40;2.80;;;26.40;15.10;;;;;;5062764;28;46917;-86
2023/07/28 08:47:18;;;;;;;4.63;2.20;;;26.20;15.80;;;;;;5063400;28;46555;-83
2023/07/28 08:49:44;;;;;;;12.10;2.30;;;25.90;15.30;;;;;;5062049;28;46420;-82
2023/07/28 08:52:10;;;;;;;9.50;2.40;;;25.80;15.30;;;;;;5062776;28;46384;-85
2023/07/28 08:54:35;;;;;;;5.77;2.20;;;25.60;15.20;;;;;;5059701;28;46695;-81
2023/07/28 08:57:01;;;;;;;4.87;2.60;;;26.00;15.80;;;;;;5039462;28;46404;-82
2023/07/28 08:59:28;;;;;;;5.40;2.57;;;25.70;15.40;;;;;;5063419;28;46461;-88
2023/07/28 09:01:55;;;;;;;4.37;2.00;;;25.80;15.30;;;;;;5059747;28;46574;-83
2023/07/28 09:04:22;;;;;;;4.10;2.50;;;25.80;15.30;;;;;;5041615;28;46884;-83
2023/07/28 09:06:49;;;;;;;5.50;2.10;;;25.80;15.30;;;;;;5060323;28;46555;-83
2023/07/28 09:09:15;;;;;;;4.47;1.83;;;26.00;15.40;;;;;;5060018;28;46714;-80
2023/07/28 09:11:54;;;;;;;3.37;2.00;;;26.30;14.80;;;;;;5063091;28;46352;-79
2023/07/28 09:14:23;;;;;;;4.40;2.20;;;26.60;14.10;;;;;;5059204;28;46444;-80
2023/07/28 09:16:49;;;;;;;4.80;2.30;;;26.60;14.10;;;;;;5041654;28;46540;-77
2023/07/28 09:19:15;;;;;;;4.63;2.30;;;26.40;14.20;;;;;;5060592;28;46556;-80
2023/07/28 09:21:44;;;;;;;5.07;2.10;;;26.40;14.40;;;;;;5058233;28;48107;-81
2023/07/28 09:24:11;;;;;;;4.60;2.20;;;26.50;13.90;;;;;;5061594;28;46653;-80
2023/07/28 09:26:40;;;;;;;3.73;1.90;;;26.80;13.70;;;;;;5059031;28;46902;-79
2023/07/28 09:29:20;;;;;;;3.40;2.10;;;26.80;13.10;;;;;;5056157;28;46462;-82
2023/07/28 09:31:47;;;;;;;4.00;2.17;;;27.10;12.80;;;;;;5058734;28;46468;-81
2023/07/28 09:34:26;;;;;;;12.23;3.10;;;27.20;12.70;;;;;;5059558;28;47214;-86
2023/07/28 09:36:58;;;;;;;4.67;2.53;;;27.10;11.80;;;;;;5056775;28;46521;-81
2023/07/28 09:39:25;;;;;;;4.20;2.20;;;27.10;12.80;;;;;;5059289;28;46508;-84
2023/07/28 09:41:51;;;;;;;4.60;2.03;;;;;;;;;;5059777;28;46396;-85
2023/07/28 09:44:17;;;;;;;4.27;2.53;;;26.60;12.30;;;;;;5058996;28;46429;-83
2023/07/28 09:46:56;;;;;;;6.50;2.57;;;26.10;12.80;;;;;;5058402;28;46425;-77
2023/07/28 09:49:45;;;;;;;4.10;2.30;;;26.00;12.70;;;;;;5056124;28;46179;-82
2023/07/28 09:52:14;;;;;;;4.27;2.53;;;25.60;14.40;;;;;;5037709;28;48117;-81
2023/07/28 09:54:41;;;;;;;4.73;2.50;;;25.70;14.40;;;;;;5057546;28;46770;-83
2023/07/28 09:57:13;;;;;;;4.33;2.60;;;25.90;13.40;;;;;;5038958;28;46547;-84
2023/07/28 09:59:41;;;;;;;4.03;2.43;;;26.10;13.90;;;;;;5056745;28;46881;-84
2023/07/28 10:02:07;;;;;;;6.53;2.43;;;26.10;13.80;;;;;;5056207;28;47123;-83
2023/07/28 10:04:33;;;;;;;4.37;2.63;;;26.00;14.00;;;;;;5057673;28;46463;-84
2023/07/28 10:07:00;;;;;;;3.93;2.30;;;25.70;13.30;;;;;;5056505;28;47161;-82
2023/07/28 10:09:27;;;;;;;4.83;2.70;;;25.60;14.40;;;;;;5055956;28;46511;-83
2023/07/28 10:11:55;;;;;;;4.13;2.27;;;25.60;14.50;;;;;;5057951;28;46451;-82
2023/07/28 10:14:31;;;;;;;4.43;2.50;;;25.50;14.60;;;;;;5058165;28;47156;-84
2023/07/28 10:17:04;;;;;;;6.70;2.83;;;25.40;13.80;;;;;;5056601;28;46400;-82
2023/07/28 10:19:34;;;;;;;7.63;3.00;;;25.50;14.50;;;;;;5062529;28;47214;-85
2023/07/28 10:22:01;;;;;;;6.60;3.00;;;25.60;14.30;;;;;;5061020;28;46817;-86
2023/07/28 10:24:56;;;;;;;5.20;2.50;;;25.70;14.00;;;;;;5043981;28;47228;-88
2023/07/28 10:27:33;;;;;;;8.57;3.30;;;25.60;13.30;;;;;;5060604;28;46895;-83
2023/07/28 10:30:01;;;;;;;4.17;2.20;;;25.70;14.20;;;;;;5059259;28;46599;-87
2023/07/28 10:32:30;;;;;;;6.23;2.83;;;26.00;13.60;;;;;;5058076;28;46911;-85
2023/07/28 10:35:26;;;;;;;5.00;2.40;;;25.80;12.60;;;;;;5059621;28;46716;-86
2023/07/28 10:37:56;;;;;;;4.73;2.83;;;25.60;13.10;;;;;;5040316;28;47084;-83
2023/07/28 10:40:28;;;;;;;4.57;2.60;;;25.70;14.20;;;;;;5061187;28;46553;-83
2023/07/28 10:42:55;;;;;;;5.33;2.83;;;25.30;13.90;;;;;;5063590;28;47278;-84
2023/07/28 10:45:23;;;;;;;4.40;2.53;;;25.70;14.10;;;;;;5044277;28;46841;-81
2023/07/28 10:47:49;;;;;;;7.33;3.57;;;25.50;13.40;;;;;;5060058;28;46241;-82
2023/07/28 10:50:15;;;;;;;7.33;3.70;;;25.60;14.30;;;;;;5059566;28;46720;-79
2023/07/28 10:52:45;;;;;;;6.70;3.37;;;25.90;14.10;;;;;;5056828;28;46676;-78
2023/07/28 10:55:21;;;;;;;5.50;3.27;;;26.10;13.80;;;;;;5052579;28;46700;-81
2023/07/28 10:57:49;;;;;;;4.47;2.40;;;26.30;12.80;;;;;;5033639;28;46405;-79
2023/07/28 11:00:21;;;;;;;5.60;2.73;;;26.40;13.50;;;;;;5038646;28;46630;-85
2023/07/28 11:02:51;;;;;;;6.43;3.07;;;26.40;12.70;;;;;;5057219;28;46439;-84
2023/07/28 11:05:25;;;;;;;4.90;2.73;;;26.50;13.60;;;;;;5057481;28;46684;-82
2023/07/28 11:07:54;;;;;;;4.43;2.23;;;26.60;12.10;;;;;;5057820;28;46502;-84
2023/07/28 11:10:20;;;;;;;7.70;3.03;;;;;;;;;;5056333;28;46436;-84
2023/07/28 11:12:49;;;;;;;5.30;2.70;;;26.30;11.20;;;;;;5059338;28;47162;-84
2023/07/28 11:15:15;;;;;;;5.50;2.87;;;26.30;12.20;;;;;;5058724;28;46694;-84
2023/07/28 11:17:52;;;;;;;5.63;2.80;;;26.20;10.70;;;;;;5038307;28;46539;-84
2023/07/28 11:20:25;;;;;;;4.30;2.60;;;26.30;11.80;;;;;;5058875;28;46673;-83
2023/07/28 11:22:56;;;;;;;4.97;3.00;;;26.90;11.70;;;;;;5058405;28;47628;-83
2023/07/28 11:25:23;;;;;;;5.53;2.67;;;27.50;10.80;;;;;;5058239;28;46724;-84
2023/07/28 11:27:49;;;;;;;4.93;2.50;;;27.20;9.30;;;;;;5058416;28;46513;-83
2023/07/28 11:30:16;;;;;;;4.23;2.37;;;27.20;10.70;;;;;;5057135;28;46451;-82
2023/07/28 11:32:47;;;;;;;5.87;2.70;;;27.20;11.00;;;;;;5057385;28;46443;-83
2023/07/28 11:35:15;;;;;;;5.50;2.60;;;27.70;9.80;;;;;;5056856;28;46411;-83
2023/07/28 11:37:43;;;;;;;7.40;2.70;;;27.70;9.30;;;;;;5038395;28;45926;-82
2023/07/28 11:40:14;;;;;;;7.33;2.80;;;27.80;10.30;;;;;;5055295;28;46951;-85
2023/07/28 11:43:06;;;;;;;5.73;2.60;;;27.40;9.70;;;;;;5057333;28;46416;-85
2023/07/28 11:45:32;;;;;;;5.60;2.80;;;27.20;11.00;;;;;;5024611;28;46407;-85
2023/07/28 11:48:00;;;;;;;7.50;2.70;;;27.10;10.20;;;;;;5057249;28;45861;-82
2023/07/28 11:50:28;;;;;;;6.60;2.83;;;27.30;10.90;;;;;;5058591;28;46478;-83
2023/07/28 11:52:54;;;;;;;6.43;2.87;;;27.50;10.50;;;;;;5039362;28;48455;-82
2023/07/28 11:55:21;;;;;;;10.70;2.43;;;27.60;9.30;;;;;;5057725;28;46385;-82
2023/07/28 11:57:47;;;;;;;4.43;2.57;;;27.60;9.20;;;;;;5058693;27;46688;-83
2023/07/28 12:00:16;;;;;;;6.67;2.87;;;27.50;10.40;;;;;;5057815;28;46616;-84
2023/07/28 12:02:43;;;;;;;5.30;2.80;;;27.30;10.50;;;;;;5057002;28;46511;-84
2023/07/28 12:05:16;;;;;;;5.50;3.07;;;27.40;10.60;;;;;;5056763;28;46704;-84
2023/07/28 12:07:47;;;;;;;5.20;3.00;;;27.60;9.20;;;;;;5040559;28;46361;-84
2023/07/28 12:10:13;;;;;;;7.10;2.50;;;27.60;10.50;;;;;;5057043;28;46480;-84
2023/07/28 12:12:44;;;;;;;5.20;2.40;;;27.60;9.50;;;;;;5040616;28;49704;-82
2023/07/28 12:15:25;;;;;;;5.97;2.87;;;27.40;8.90;;;;;;5060793;28;46508;-85
2023/07/28 12:18:08;;;;;;;5.37;2.40;;;27.30;8.90;;;;;;5044848;28;46794;-84
2023/07/28 12:20:47;;;;;;;4.73;2.60;;;27.10;10.30;;;;;;5042039;28;46766;-83
2023/07/28 12:23:14;;;;;;;5.33;2.73;;;27.10;10.60;;;;;;5062761;28;46696;-82
2023/07/28 12:25:40;;;;;;;5.30;2.80;;;27.30;9.40;;;;;;5061618;28;46605;-84
2023/07/28 12:28:05;;;;;;;4.43;2.60;;;27.20;10.20;;;;;;5065847;28;46763;-84
2023/07/28 12:30:32;;;;;;;6.40;2.60;;;27.50;9.10;;;;;;5066219;28;46949;-83
2023/07/28 12:32:58;;;;;;;5.33;2.20;;;27.40;9.90;;;;;;5065641;28;46553;-85
2023/07/28 12:35:26;;;;;;;5.50;2.43;;;27.50;9.50;;;;;;5046707;28;46476;-83
2023/07/28 12:37:52;;;;;;;5.13;3.10;;;27.50;8.30;;;;;;5068172;28;45911;-82
2023/07/28 12:40:21;;;;;;;5.63;2.40;;;27.40;9.40;;;;;;5057324;28;46847;-83
2023/07/28 12:42:47;;;;;;;3.90;2.50;;;27.50;9.40;;;;;;5053024;28;47151;-80
2023/07/28 12:45:15;;;;;;;7.00;2.93;;;27.50;9.10;;;;;;5054590;28;46925;-83
2023/07/28 12:47:41;;;;;;;6.53;3.20;;;27.70;8.10;;;;;;5054538;28;46720;-83